Time;durP1;ratioP1;P1;durP2;ratioP2;P2;SDS_P1;SDS_P2;PMS_P1;PMS_P2;Temp;Humidity;BMP_temperature;BMP_pressure;BME280_temperature;BME280_humidity;BME280_pressure;Samples;Min_cycle;Max_cycle;Signal;HPM_P1;HPM_P2
2022/04/06 00:00:10;;;;;;;13.38;5.65;;;8.00;99.90;;;;;;5114858;27;20039;-75
2022/04/06 00:02:40;;;;;;;16.17;5.70;;;8.00;99.90;;;;;;5122873;27;20110;-75
2022/04/06 00:05:10;;;;;;;13.18;5.72;;;8.10;99.90;;;;;;5098157;27;20039;-75
2022/04/06 00:07:43;;;;;;;13.98;6.43;;;8.40;99.90;;;;;;5114312;27;20035;-75
2022/04/06 00:10:10;;;;;;;10.48;5.50;;;8.10;99.90;;;;;;5119223;27;20031;-74
2022/04/06 00:12:38;;;;;;;14.32;6.75;;;8.30;99.90;;;;;;5101496;27;20046;-75
2022/04/06 00:15:09;;;;;;;14.77;6.45;;;8.10;99.90;;;;;;5127233;27;20039;-74
2022/04/06 00:17:35;;;;;;;12.77;6.20;;;8.30;99.90;;;;;;5106700;27;20046;-74
2022/04/06 00:20:01;;;;;;;14.68;7.57;;;8.10;99.90;;;;;;5097395;27;20047;-74
2022/04/06 00:22:26;;;;;;;12.18;6.60;;;8.10;99.90;;;;;;5113873;27;20047;-74
2022/04/06 00:24:52;;;;;;;15.48;7.65;;;8.10;99.90;;;;;;5114685;27;20122;-74
2022/04/06 00:27:19;;;;;;;19.00;8.75;;;8.10;99.90;;;;;;5133971;27;20054;-74
2022/04/06 00:29:44;;;;;;;19.85;9.75;;;8.20;99.90;;;;;;5105615;27;20038;-74
2022/04/06 00:32:10;;;;;;;17.17;8.85;;;8.40;99.90;;;;;;5114190;27;20037;-75
2022/04/06 00:37:21;;;;;;;18.48;9.50;;;8.40;99.90;;;;;;5124325;27;20262;-74
2022/04/06 00:39:46;;;;;;;17.92;9.95;;;8.30;99.90;;;;;;5132531;27;20133;-74
2022/04/06 00:42:12;;;;;;;20.08;9.88;;;8.10;99.90;;;;;;5108504;28;20084;-74
2022/04/06 00:44:39;;;;;;;24.13;10.65;;;8.40;99.90;;;;;;5116005;27;20149;-74
2022/04/06 00:47:06;;;;;;;25.05;11.35;;;8.10;99.90;;;;;;5126440;27;20041;-74
2022/04/06 00:49:33;;;;;;;18.58;10.35;;;8.30;99.90;;;;;;5129618;27;20390;-74
2022/04/06 00:52:05;;;;;;;27.90;10.80;;;8.50;99.90;;;;;;5119608;27;20047;-74
2022/04/06 00:54:32;;;;;;;25.40;11.52;;;8.10;99.90;;;;;;5099911;27;20123;-74
2022/04/06 00:56:59;;;;;;;25.10;10.68;;;8.20;99.90;;;;;;5125380;27;20373;-74
2022/04/06 00:59:28;;;;;;;18.20;9.55;;;8.20;99.90;;;;;;5127979;27;20054;-74
2022/04/06 01:01:54;;;;;;;20.70;10.05;;;8.30;99.90;;;;;;5138366;27;20047;-74
2022/04/06 01:04:20;;;;;;;27.73;10.30;;;8.20;99.90;;;;;;5124937;27;20079;-74
2022/04/06 01:06:48;;;;;;;29.10;11.52;;;8.50;99.90;;;;;;5133892;27;20073;-74
2022/04/06 01:09:18;;;;;;;20.45;10.38;;;8.60;99.90;;;;;;5101071;27;20039;-75
2022/04/06 01:11:49;;;;;;;22.45;11.05;;;8.20;99.90;;;;;;5124827;27;20038;-74
2022/04/06 01:14:15;;;;;;;21.02;10.45;;;8.30;99.90;;;;;;5136020;27;20039;-74
2022/04/06 01:16:55;;;;;;;20.23;9.23;;;8.20;99.90;;;;;;5115830;27;20035;-75
2022/04/06 01:19:20;;;;;;;21.55;10.00;;;8.30;99.90;;;;;;5137837;27;20058;-74
2022/04/06 01:21:46;;;;;;;28.65;9.88;;;8.30;99.90;;;;;;5132909;27;20038;-74
2022/04/06 01:24:12;;;;;;;21.30;10.25;;;8.70;99.90;;;;;;5112204;27;20034;-74
2022/04/06 01:26:37;;;;;;;24.95;9.80;;;8.70;99.90;;;;;;5129698;27;20051;-74
2022/04/06 01:29:03;;;;;;;18.52;9.82;;;8.30;99.90;;;;;;5133405;27;20035;-74
2022/04/06 01:31:29;;;;;;;24.55;8.85;;;8.60;99.90;;;;;;5101212;27;20200;-74
2022/04/06 01:33:54;;;;;;;17.80;8.75;;;8.50;99.90;;;;;;5100128;27;20091;-74
2022/04/06 01:36:20;;;;;;;15.27;8.25;;;8.60;99.90;;;;;;5112607;27;20945;-74
2022/04/06 01:38:45;;;;;;;19.58;9.25;;;8.60;99.90;;;;;;5120914;27;20050;-75
2022/04/06 01:41:11;;;;;;;15.48;8.85;;;8.70;99.90;;;;;;5136878;27;20213;-75
2022/04/06 01:43:37;;;;;;;18.92;8.70;;;8.50;99.90;;;;;;5084509;27;20038;-74
2022/04/06 01:46:02;;;;;;;16.33;8.10;;;8.50;99.90;;;;;;5131767;27;20425;-75
2022/04/06 01:48:28;;;;;;;25.60;9.82;;;8.60;99.90;;;;;;5133562;27;20037;-74
2022/04/06 01:53:50;;;;;;;16.75;8.73;;;8.40;99.90;;;;;;5078861;27;20044;-75
2022/04/06 01:56:16;;;;;;;21.98;8.88;;;8.40;99.90;;;;;;5129882;27;20042;-75
2022/04/06 01:58:41;;;;;;;21.40;8.45;;;8.50;99.90;;;;;;5123709;27;20043;-75
2022/04/06 02:01:07;;;;;;;19.70;8.52;;;8.70;99.90;;;;;;5113344;27;20051;-74
2022/04/06 02:03:32;;;;;;;15.65;7.80;;;8.40;99.90;;;;;;5116697;27;20402;-74
2022/04/06 02:05:58;;;;;;;20.55;7.90;;;8.40;99.90;;;;;;5114110;27;20480;-74
2022/04/06 02:08:24;;;;;;;16.13;8.38;;;8.60;99.90;;;;;;5116582;27;20035;-74
2022/04/06 02:10:50;;;;;;;20.95;7.68;;;8.60;99.90;;;;;;5099748;27;20043;-74
2022/04/06 02:13:15;;;;;;;19.70;8.00;;;8.60;99.90;;;;;;5116484;27;20039;-75
2022/04/06 02:15:41;;;;;;;21.50;7.80;;;8.40;99.90;;;;;;5072747;27;20042;-75
2022/04/06 02:18:08;;;;;;;16.38;6.65;;;8.40;99.90;;;;;;5132823;27;20058;-75
2022/04/06 02:20:33;;;;;;;17.08;7.28;;;8.70;99.90;;;;;;5114782;27;20068;-75
2022/04/06 02:22:59;;;;;;;16.23;7.20;;;8.70;99.90;;;;;;5132043;27;20055;-74
2022/04/06 02:25:25;;;;;;;19.77;7.70;;;8.40;99.90;;;;;;5122259;27;20078;-75
2022/04/06 02:27:52;;;;;;;18.98;7.65;;;8.40;99.90;;;;;;5117974;27;20055;-75
2022/04/06 02:30:19;;;;;;;16.48;6.70;;;8.50;99.90;;;;;;5109331;27;20041;-76
2022/04/06 02:32:45;;;;;;;12.77;6.65;;;8.40;99.90;;;;;;5123729;27;20078;-74
2022/04/06 02:35:11;;;;;;;18.63;7.53;;;8.60;99.90;;;;;;5117367;27;20074;-75
2022/04/06 02:37:41;;;;;;;17.10;6.68;;;8.50;99.90;;;;;;5116053;27;20477;-74
2022/04/06 02:40:08;;;;;;;13.50;5.90;;;8.70;99.90;;;;;;5130561;27;20038;-73
2022/04/06 02:42:34;;;;;;;18.77;7.10;;;8.70;99.90;;;;;;5119210;27;20054;-74
2022/04/06 02:44:59;;;;;;;13.73;5.65;;;8.50;99.90;;;;;;5112302;27;20035;-74
2022/04/06 02:47:25;;;;;;;12.48;5.38;;;8.40;99.90;;;;;;5124384;27;20034;-75
2022/04/06 02:49:51;;;;;;;13.73;5.78;;;8.40;99.90;;;;;;5136278;27;20038;-74
2022/04/06 02:52:17;;;;;;;16.00;5.78;;;8.70;99.90;;;;;;5127088;27;20039;-75
2022/04/06 02:54:43;;;;;;;14.50;5.55;;;8.40;99.90;;;;;;5119800;27;20081;-75
2022/04/06 02:57:08;;;;;;;10.45;4.40;;;8.60;99.90;;;;;;5121914;27;20034;-75
2022/04/06 02:59:34;;;;;;;13.20;5.05;;;8.70;99.90;;;;;;5135333;27;20042;-75
2022/04/06 03:01:59;;;;;;;11.90;4.47;;;8.40;99.90;;;;;;5127583;27;20043;-75
2022/04/06 03:04:25;;;;;;;11.20;4.13;;;8.60;99.90;;;;;;5116864;27;20465;-75
2022/04/06 03:06:51;;;;;;;13.23;4.72;;;8.70;99.90;;;;;;5110363;27;20499;-75
2022/04/06 03:09:16;;;;;;;7.88;3.55;;;8.50;99.90;;;;;;5107087;27;20503;-75
2022/04/06 03:11:43;;;;;;;9.38;3.70;;;8.60;99.90;;;;;;5099753;27;20486;-75
2022/04/06 03:14:09;;;;;;;11.90;3.90;;;8.70;99.90;;;;;;5099352;27;20054;-74
2022/04/06 03:16:34;;;;;;;11.20;3.97;;;8.50;99.90;;;;;;5131245;27;20043;-74
2022/04/06 03:19:00;;;;;;;9.35;3.08;;;8.70;99.90;;;;;;5103713;27;20760;-74
2022/04/06 03:21:26;;;;;;;9.73;3.60;;;8.40;99.90;;;;;;5084452;27;20154;-75
2022/04/06 03:23:51;;;;;;;8.73;3.20;;;8.50;99.90;;;;;;5124568;27;20565;-75
2022/04/06 03:26:17;;;;;;;9.95;2.97;;;8.40;99.90;;;;;;5111520;28;20053;-74
2022/04/06 03:28:43;;;;;;;8.07;2.88;;;8.40;99.90;;;;;;5094557;28;20050;-74
2022/04/06 03:31:08;;;;;;;7.95;3.08;;;8.70;99.90;;;;;;5110898;28;20043;-74
2022/04/06 03:33:34;;;;;;;8.73;3.00;;;8.40;99.90;;;;;;5111026;28;20032;-74
2022/04/06 03:36:00;;;;;;;11.07;2.65;;;8.40;99.90;;;;;;5078668;28;20442;-74
2022/04/06 03:38:26;;;;;;;8.65;2.47;;;8.40;99.90;;;;;;5094477;28;20078;-73
2022/04/06 03:40:52;;;;;;;7.00;2.67;;;8.60;99.90;;;;;;5111139;28;20479;-73
2022/04/06 03:43:18;;;;;;;7.50;2.88;;;8.50;99.90;;;;;;5111115;28;20078;-74
2022/04/06 03:45:43;;;;;;;10.90;3.22;;;8.60;99.90;;;;;;5110746;28;20103;-74
2022/04/06 03:48:09;;;;;;;9.98;3.22;;;8.40;99.90;;;;;;5091540;28;20129;-74
2022/04/06 03:50:36;;;;;;;11.05;4.10;;;8.40;99.90;;;;;;5111056;28;20031;-74
2022/04/06 03:53:01;;;;;;;11.43;3.47;;;8.40;99.90;;;;;;5110652;28;20114;-74
2022/04/06 03:55:27;;;;;;;8.32;3.30;;;8.50;99.90;;;;;;5110899;28;20035;-74
2022/04/06 03:57:53;;;;;;;9.85;3.88;;;8.40;99.90;;;;;;5110428;28;20097;-74
2022/04/06 04:00:18;;;;;;;9.63;3.88;;;8.60;99.90;;;;;;5092680;28;20063;-75
2022/04/06 04:02:46;;;;;;;12.07;4.22;;;8.60;99.90;;;;;;5108191;28;20047;-75
2022/04/06 04:05:12;;;;;;;12.73;4.63;;;8.50;99.90;;;;;;5072210;28;20048;-75
2022/04/06 04:07:38;;;;;;;10.60;3.72;;;8.30;99.90;;;;;;5104402;28;20035;-75
2022/04/06 04:10:09;;;;;;;12.98;3.80;;;8.30;99.90;;;;;;5110540;28;20129;-75
2022/04/06 04:12:35;;;;;;;14.15;4.95;;;8.40;99.90;;;;;;5093548;28;20073;-75
2022/04/06 04:15:02;;;;;;;15.15;5.25;;;8.40;99.90;;;;;;5060745;28;20105;-75
2022/04/06 04:17:28;;;;;;;;;;;8.40;99.90;;;;;;5110485;28;20082;-75
2022/04/06 04:19:54;;;;;;;14.82;5.20;;;8.50;99.90;;;;;;5110170;28;19961;-75
2022/04/06 04:22:19;;;;;;;19.90;5.60;;;8.30;99.90;;;;;;5110160;28;20050;-75
2022/04/06 04:24:45;;;;;;;12.50;5.65;;;8.20;99.90;;;;;;5111789;28;20043;-75
2022/04/06 04:27:11;;;;;;;18.90;5.65;;;8.30;99.90;;;;;;5129344;27;20073;-75
2022/04/06 04:29:36;;;;;;;13.00;5.15;;;8.30;99.90;;;;;;5114164;27;20176;-75
2022/04/06 04:32:02;;;;;;;17.80;5.78;;;8.30;99.90;;;;;;5126366;27;20031;-75
2022/04/06 04:34:28;;;;;;;16.10;6.05;;;8.40;99.90;;;;;;5113563;27;20050;-74
2022/04/06 04:36:54;;;;;;;19.17;6.95;;;8.40;99.90;;;;;;5097201;27;20039;-75
2022/04/06 04:39:20;;;;;;;15.55;6.43;;;8.40;99.90;;;;;;5113999;27;20078;-75
2022/04/06 04:41:47;;;;;;;18.65;7.18;;;8.30;99.90;;;;;;5114953;28;20794;-75
2022/04/06 04:44:13;;;;;;;14.80;6.72;;;8.30;99.90;;;;;;5114675;28;20044;-74
2022/04/06 04:46:39;;;;;;;15.50;6.85;;;8.50;99.90;;;;;;5126972;27;20050;-75
2022/04/06 04:49:04;;;;;;;22.10;6.80;;;8.40;99.90;;;;;;5114653;27;20043;-74
2022/04/06 04:51:30;;;;;;;18.48;7.03;;;8.40;99.90;;;;;;5095686;27;20050;-74
2022/04/06 04:53:57;;;;;;;17.08;7.30;;;8.50;99.90;;;;;;5105317;28;20478;-74
2022/04/06 04:56:25;;;;;;;19.48;6.72;;;8.30;99.90;;;;;;5116621;27;20079;-74
2022/04/06 04:58:51;;;;;;;19.00;7.30;;;8.50;99.90;;;;;;5101953;27;20408;-75
2022/04/06 05:01:17;;;;;;;17.25;7.13;;;8.40;99.90;;;;;;5130553;27;20044;-74
2022/04/06 05:03:43;;;;;;;17.52;6.82;;;8.50;99.90;;;;;;5109921;27;20047;-75
2022/04/06 05:06:09;;;;;;;16.95;6.10;;;8.40;99.90;;;;;;5127641;27;20054;-75
2022/04/06 05:08:34;;;;;;;18.65;6.60;;;8.40;99.90;;;;;;5129302;27;20046;-75
2022/04/06 05:11:00;;;;;;;12.85;5.85;;;8.50;99.90;;;;;;5118610;28;20035;-75
2022/04/06 05:13:26;;;;;;;17.67;6.53;;;8.50;99.90;;;;;;5129900;27;20039;-75
2022/04/06 05:15:52;;;;;;;15.95;5.80;;;8.50;99.90;;;;;;5118669;28;20037;-75
2022/04/06 05:18:17;;;;;;;15.77;6.07;;;8.40;99.90;;;;;;5123401;28;20050;-74
2022/04/06 05:20:44;;;;;;;15.27;6.18;;;8.30;99.90;;;;;;5124760;27;20043;-75
2022/04/06 05:23:09;;;;;;;19.40;6.10;;;8.40;99.90;;;;;;5121655;27;20039;-75
2022/04/06 05:25:35;;;;;;;15.23;5.55;;;8.30;99.90;;;;;;5108167;27;20082;-75
2022/04/06 05:28:01;;;;;;;15.88;5.50;;;8.40;99.90;;;;;;5115751;27;20074;-74
2022/04/06 05:30:27;;;;;;;15.20;5.90;;;8.20;99.90;;;;;;5128606;27;20042;-74
2022/04/06 05:32:55;;;;;;;17.00;5.40;;;8.20;99.90;;;;;;5097432;27;20095;-75
2022/04/06 05:35:24;;;;;;;15.05;5.22;;;8.20;99.90;;;;;;5119530;27;20050;-74
2022/04/06 05:37:49;;;;;;;19.63;6.30;;;8.30;99.90;;;;;;5101218;27;20481;-74
2022/04/06 05:40:17;;;;;;;17.40;6.30;;;8.20;99.90;;;;;;5111974;27;20038;-72
2022/04/06 05:42:43;;;;;;;14.68;5.50;;;8.30;99.90;;;;;;5113204;27;20047;-72
2022/04/06 05:45:09;;;;;;;18.35;6.15;;;8.10;99.90;;;;;;5125902;27;20110;-72
2022/04/06 05:47:36;;;;;;;;;;;8.20;99.90;;;;;;5124865;27;20041;-71
2022/04/06 05:50:03;;;;;;;15.15;5.25;;;8.10;99.90;;;;;;5119101;27;19926;-71
2022/04/06 05:52:28;;;;;;;17.63;5.60;;;8.00;99.90;;;;;;5115765;27;20050;-72
2022/04/06 05:54:54;;;;;;;18.30;6.40;;;8.10;99.90;;;;;;5120444;27;20035;-72
2022/04/06 05:57:20;;;;;;;13.98;5.82;;;8.20;99.90;;;;;;5110193;27;20497;-72
2022/04/06 05:59:46;;;;;;;17.58;6.55;;;8.20;99.90;;;;;;5117432;27;20085;-73
2022/04/06 06:02:12;;;;;;;12.93;5.65;;;8.10;99.90;;;;;;5131140;27;20165;-73
2022/04/06 06:04:38;;;;;;;19.20;7.15;;;8.20;99.90;;;;;;5131241;27;20078;-73
2022/04/06 06:07:05;;;;;;;12.82;5.65;;;8.20;99.90;;;;;;5123037;27;20054;-73
2022/04/06 06:09:31;;;;;;;16.20;5.80;;;8.00;99.90;;;;;;5116295;27;20047;-73
2022/04/06 06:11:58;;;;;;;15.13;6.40;;;8.00;99.90;;;;;;5130800;27;20474;-73
2022/04/06 06:14:24;;;;;;;17.63;5.72;;;8.10;99.90;;;;;;5122942;27;20047;-73
2022/04/06 06:16:49;;;;;;;10.90;5.07;;;8.10;99.90;;;;;;5134253;27;20051;-74
2022/04/06 06:19:16;;;;;;;12.60;5.30;;;8.10;99.90;;;;;;5113057;27;20394;-74
2022/04/06 06:21:42;;;;;;;13.77;5.40;;;7.90;99.90;;;;;;5127185;27;20042;-73
2022/04/06 06:24:08;;;;;;;9.43;4.45;;;8.10;99.90;;;;;;5128312;27;20670;-74
2022/04/06 06:26:35;;;;;;;13.10;4.90;;;8.00;99.90;;;;;;5087463;27;20051;-74
2022/04/06 06:29:01;;;;;;;9.90;4.00;;;7.90;99.90;;;;;;5119307;27;20084;-72
2022/04/06 06:31:28;;;;;;;8.45;4.47;;;8.10;99.90;;;;;;5109934;27;20030;-72
2022/04/06 06:33:54;;;;;;;10.35;4.45;;;7.90;99.90;;;;;;5126772;27;20147;-73
2022/04/06 06:36:20;;;;;;;11.85;4.53;;;8.10;99.90;;;;;;5107992;27;20042;-73
2022/04/06 06:38:45;;;;;;;11.93;4.68;;;7.90;99.90;;;;;;5109446;27;20035;-73
2022/04/06 06:41:11;;;;;;;11.35;4.10;;;8.00;99.90;;;;;;5105422;27;20038;-73
2022/04/06 06:43:37;;;;;;;9.30;4.40;;;7.90;99.90;;;;;;5108705;27;20051;-72
2022/04/06 06:46:02;;;;;;;11.70;3.92;;;7.90;99.90;;;;;;5110235;27;20126;-71
2022/04/06 06:48:28;;;;;;;11.20;4.60;;;8.10;99.90;;;;;;5131183;27;20091;-72
2022/04/06 06:50:54;;;;;;;10.18;4.40;;;8.10;99.90;;;;;;5125841;27;20470;-73
2022/04/06 06:53:19;;;;;;;11.07;4.55;;;8.00;99.90;;;;;;5131477;27;20393;-73
2022/04/06 06:55:45;;;;;;;12.23;4.80;;;7.80;99.90;;;;;;5126259;27;20387;-71
2022/04/06 06:58:11;;;;;;;13.70;4.75;;;7.90;99.90;;;;;;5108385;27;20085;-72
2022/04/06 07:00:36;;;;;;;12.27;4.10;;;8.00;99.90;;;;;;5127163;27;20074;-71
2022/04/06 07:03:02;;;;;;;12.70;4.18;;;8.00;99.90;;;;;;5099199;27;20043;-73
2022/04/06 07:05:28;;;;;;;11.27;3.42;;;8.10;99.90;;;;;;5102656;27;20044;-73
2022/04/06 07:08:00;;;;;;;9.80;3.08;;;8.10;99.90;;;;;;5142389;27;20038;-73
2022/04/06 07:10:28;;;;;;;10.48;3.17;;;7.90;99.90;;;;;;5147540;27;20122;-73
2022/04/06 07:12:54;;;;;;;10.63;2.75;;;8.10;99.90;;;;;;5108892;27;20382;-73
2022/04/06 07:15:20;;;;;;;9.63;2.83;;;8.10;99.90;;;;;;5100135;27;20079;-73
2022/04/06 07:17:57;;;;;;;9.18;2.95;;;8.00;99.90;;;;;;5115355;27;20370;-73
2022/04/06 07:20:25;;;;;;;9.85;3.47;;;7.80;99.90;;;;;;5122958;27;20042;-72
2022/04/06 07:22:51;;;;;;;10.25;3.13;;;7.80;99.90;;;;;;5098132;27;20406;-72
2022/04/06 07:25:17;;;;;;;8.13;2.63;;;7.90;99.90;;;;;;5101928;27;20112;-72
2022/04/06 07:27:43;;;;;;;10.27;2.80;;;7.90;99.90;;;;;;5112696;27;20377;-72
2022/04/06 07:30:10;;;;;;;7.70;2.90;;;8.00;99.90;;;;;;5114764;27;20035;-72
2022/04/06 07:32:36;;;;;;;10.52;3.30;;;7.90;99.90;;;;;;5114616;27;20110;-72
2022/04/06 07:35:04;;;;;;;8.10;3.22;;;8.20;99.90;;;;;;5097777;27;20512;-72
2022/04/06 07:37:43;;;;;;;13.52;2.83;;;8.20;99.90;;;;;;5089344;27;20179;-72
2022/04/06 07:40:11;;;;;;;7.65;2.97;;;8.10;99.90;;;;;;5135209;27;20195;-72
2022/04/06 07:42:37;;;;;;;8.85;3.13;;;8.00;99.90;;;;;;5134951;27;20090;-72
2022/04/06 07:45:06;;;;;;;6.22;2.45;;;7.90;99.90;;;;;;5134813;27;20046;-72
2022/04/06 07:47:33;;;;;;;10.75;3.35;;;8.20;99.90;;;;;;5101257;27;20046;-71
2022/04/06 07:50:00;;;;;;;8.32;2.60;;;8.00;99.90;;;;;;5134894;27;20057;-72
2022/04/06 07:52:29;;;;;;;10.35;3.33;;;8.00;99.90;;;;;;5134850;27;20038;-72
2022/04/06 07:54:55;;;;;;;10.52;3.25;;;8.20;99.90;;;;;;5117659;27;20382;-72
2022/04/06 07:57:24;;;;;;;10.23;3.28;;;8.10;99.90;;;;;;5117817;27;20049;-72
2022/04/06 07:59:50;;;;;;;9.18;3.05;;;8.20;99.90;;;;;;5134846;27;20050;-73
2022/04/06 08:02:16;;;;;;;10.35;2.63;;;8.10;99.90;;;;;;5134867;27;20054;-73
2022/04/06 08:04:42;;;;;;;10.45;3.05;;;8.00;99.90;;;;;;5134457;27;20399;-73
2022/04/06 08:07:08;;;;;;;12.10;3.30;;;8.30;99.90;;;;;;5134477;27;20091;-72
2022/04/06 08:09:34;;;;;;;8.15;2.92;;;8.30;99.90;;;;;;5117290;27;20065;-72
2022/04/06 08:12:01;;;;;;;12.07;3.75;;;8.10;99.90;;;;;;5134679;27;20042;-73
2022/04/06 08:14:27;;;;;;;11.85;3.60;;;8.30;99.90;;;;;;5134398;27;20050;-72
2022/04/06 08:16:55;;;;;;;10.63;3.20;;;8.00;99.90;;;;;;5134278;27;20050;-72
2022/04/06 08:19:22;;;;;;;9.68;3.33;;;8.30;99.90;;;;;;5117369;27;20130;-73
2022/04/06 08:21:48;;;;;;;10.93;3.08;;;8.10;99.90;;;;;;5134715;27;20057;-72
2022/04/06 08:24:14;;;;;;;9.38;2.97;;;8.00;99.90;;;;;;5100247;27;20114;-72
2022/04/06 08:26:40;;;;;;;12.15;3.25;;;8.10;99.90;;;;;;5134024;27;20129;-73
2022/04/06 08:29:06;;;;;;;12.32;3.50;;;8.40;99.90;;;;;;5134630;27;20556;-72
2022/04/06 08:31:32;;;;;;;9.35;3.30;;;8.30;99.90;;;;;;5117157;27;20074;-72
2022/04/06 08:33:58;;;;;;;9.75;2.80;;;8.20;99.90;;;;;;5134257;27;20052;-72
2022/04/06 08:36:24;;;;;;;10.95;3.35;;;8.10;99.90;;;;;;5134224;27;20546;-72
2022/04/06 08:38:49;;;;;;;13.02;3.05;;;8.30;99.90;;;;;;5134092;27;20145;-77
2022/04/06 08:41:16;;;;;;;13.40;3.53;;;8.30;99.90;;;;;;5134636;27;20042;-77
2022/04/06 08:43:42;;;;;;;9.27;3.35;;;8.40;99.90;;;;;;5117267;27;20393;-77
2022/04/06 08:46:11;;;;;;;10.93;3.28;;;8.50;99.90;;;;;;5133646;27;20416;-78
2022/04/06 08:48:38;;;;;;;11.82;3.42;;;8.20;99.90;;;;;;5133623;27;20042;-78
2022/04/06 08:51:08;;;;;;;10.88;3.20;;;8.50;99.90;;;;;;5134112;27;20042;-77
2022/04/06 08:53:39;;;;;;;12.57;3.45;;;8.30;99.90;;;;;;5134328;27;20122;-78
2022/04/06 08:56:06;;;;;;;8.82;2.80;;;8.40;99.90;;;;;;5134002;27;20122;-78
2022/04/06 08:58:32;;;;;;;10.63;2.75;;;8.70;99.90;;;;;;5117348;27;20074;-77
2022/04/06 09:00:58;;;;;;;10.27;2.70;;;8.80;99.90;;;;;;5133712;27;20524;-77
2022/04/06 09:03:24;;;;;;;13.98;3.20;;;8.50;99.90;;;;;;5133954;27;20038;-77
2022/04/06 09:06:05;;;;;;;12.52;3.30;;;8.70;99.90;;;;;;5116762;27;20388;-79
2022/04/06 09:08:49;;;;;;;10.20;3.13;;;8.50;99.90;;;;;;5133870;27;20042;-78
2022/04/06 09:11:20;;;;;;;13.40;3.00;;;8.80;99.90;;;;;;5134233;27;20058;-77
2022/04/06 09:13:48;;;;;;;10.27;3.17;;;8.80;99.90;;;;;;5116803;27;20129;-77
2022/04/06 09:16:18;;;;;;;11.40;2.83;;;8.70;99.90;;;;;;5117082;27;20138;-79
2022/04/06 09:18:45;;;;;;;12.20;2.90;;;9.00;99.90;;;;;;5135770;27;20478;-78
2022/04/06 09:21:14;;;;;;;13.23;3.88;;;9.00;99.90;;;;;;5117470;27;20368;-78
2022/04/06 09:23:39;;;;;;;9.52;3.00;;;9.10;99.90;;;;;;5117344;27;20041;-79
2022/04/06 09:26:11;;;;;;;18.02;4.35;;;9.20;99.90;;;;;;5117288;27;20129;-78
2022/04/06 09:28:55;;;;;;;13.75;3.17;;;9.10;99.90;;;;;;5100369;27;20134;-78
2022/04/06 09:31:21;;;;;;;10.45;3.28;;;9.20;99.90;;;;;;5100359;27;20043;-77
2022/04/06 09:33:58;;;;;;;;;;;9.40;99.90;;;;;;5117314;27;20047;-78
2022/04/06 09:36:30;;;;;;;12.82;3.45;;;9.50;99.90;;;;;;5099934;27;19927;-78
2022/04/06 09:38:56;;;;;;;11.40;3.05;;;9.60;99.90;;;;;;5116817;27;20058;-78
2022/04/06 09:41:22;;;;;;;;;;;9.70;99.90;;;;;;5117492;27;20099;-77
2022/04/06 09:43:48;;;;;;;10.05;3.25;;;9.70;99.90;;;;;;5116696;27;20479;-77
2022/04/06 09:49:09;;;;;;;14.45;3.40;;;9.70;99.90;;;;;;5116404;27;20125;-77
2022/04/06 09:51:37;;;;;;;12.38;2.90;;;9.90;99.90;;;;;;5116210;27;20039;-76
2022/04/06 09:54:04;;;;;;;10.48;3.38;;;9.80;99.90;;;;;;5116475;27;20057;-78
2022/04/06 09:56:32;;;;;;;13.88;3.78;;;9.70;99.90;;;;;;5116358;27;20047;-77
2022/04/06 09:58:58;;;;;;;11.27;3.17;;;9.80;99.90;;;;;;5116427;27;20039;-77
2022/04/06 10:01:29;;;;;;;14.30;3.42;;;9.70;99.90;;;;;;5116299;27;20478;-77
2022/04/06 10:03:59;;;;;;;14.15;3.92;;;9.80;99.90;;;;;;5116106;27;20055;-77
2022/04/06 10:06:24;;;;;;;13.90;3.35;;;9.90;99.90;;;;;;5124575;27;20107;-77
2022/04/06 10:08:51;;;;;;;14.48;3.28;;;9.90;99.90;;;;;;5155311;27;20367;-77
2022/04/06 10:11:18;;;;;;;12.80;3.47;;;9.80;99.90;;;;;;5154995;27;20042;-77
2022/04/06 10:13:44;;;;;;;13.13;3.13;;;9.90;99.90;;;;;;5119333;27;20095;-77
2022/04/06 10:16:12;;;;;;;9.65;3.17;;;9.90;99.90;;;;;;5119735;27;20046;-78
2022/04/06 10:18:38;;;;;;;12.60;3.13;;;9.80;99.90;;;;;;5119347;27;20102;-77
2022/04/06 10:21:19;;;;;;;14.07;3.60;;;9.90;99.90;;;;;;5136608;27;20042;-77
2022/04/06 10:24:04;;;;;;;13.10;3.15;;;9.80;99.90;;;;;;5136364;27;20039;-77
2022/04/06 10:26:46;;;;;;;16.55;3.75;;;9.80;99.90;;;;;;5117708;27;20065;-78
2022/04/06 10:29:12;;;;;;;13.77;3.20;;;9.90;99.90;;;;;;5118838;27;20039;-78
2022/04/06 10:31:37;;;;;;;12.68;3.80;;;9.90;99.90;;;;;;5136324;27;20043;-78
2022/04/06 10:34:22;;;;;;;17.05;4.20;;;9.90;99.90;;;;;;5119164;27;20050;-77
2022/04/06 10:37:07;;;;;;;10.45;3.30;;;9.80;99.90;;;;;;5136169;27;20081;-77
2022/04/06 10:39:51;;;;;;;11.38;4.22;;;9.90;99.90;;;;;;5118907;27;20047;-77
2022/04/06 10:42:28;;;;;;;15.77;4.13;;;9.80;99.90;;;;;;5136066;27;20078;-78
2022/04/06 10:44:55;;;;;;;12.30;3.65;;;9.90;99.90;;;;;;5118588;27;20061;-77
2022/04/06 10:47:22;;;;;;;16.90;3.85;;;9.80;99.90;;;;;;5136200;27;20043;-77
2022/04/06 10:50:15;;;;;;;18.55;3.80;;;9.80;99.90;;;;;;5135799;27;20038;-77
2022/04/06 10:52:43;;;;;;;16.48;3.95;;;9.80;99.90;;;;;;5118744;27;20091;-77
2022/04/06 10:55:11;;;;;;;16.30;4.40;;;9.80;99.90;;;;;;5118252;27;20126;-78
2022/04/06 10:57:57;;;;;;;13.75;3.60;;;9.60;99.90;;;;;;5135648;27;20039;-77
2022/04/06 11:00:25;;;;;;;15.85;3.60;;;9.70;99.90;;;;;;5135801;27;20043;-77
2022/04/06 11:02:51;;;;;;;16.77;4.05;;;9.50;99.90;;;;;;5135978;27;20049;-77
2022/04/06 11:05:56;;;;;;;17.17;4.00;;;9.70;99.90;;;;;;5118355;27;20050;-77
2022/04/06 11:11:47;;;;;;;16.38;4.50;;;9.80;99.90;;;;;;5033087;28;20114;-71
2022/04/06 11:14:33;;;;;;;14.20;4.05;;;9.80;99.90;;;;;;5107914;27;20481;-72
2022/04/06 11:16:59;;;;;;;18.63;3.83;;;9.80;99.90;;;;;;5135551;27;20142;-71
2022/04/06 11:19:26;;;;;;;15.63;3.75;;;9.80;99.90;;;;;;5135583;27;20549;-70
2022/04/06 11:21:53;;;;;;;15.80;3.92;;;9.70;99.90;;;;;;5135681;27;20431;-72
2022/04/06 11:24:25;;;;;;;16.95;3.95;;;9.80;99.90;;;;;;5135221;27;20042;-72
2022/04/06 11:26:52;;;;;;;21.38;4.38;;;9.80;99.90;;;;;;5135247;27;20058;-71
2022/04/06 11:29:17;;;;;;;17.10;3.97;;;9.80;99.90;;;;;;5135139;27;20046;-72
2022/04/06 11:32:01;;;;;;;17.65;4.35;;;10.00;99.90;;;;;;5117936;27;20031;-72
2022/04/06 11:34:40;;;;;;;17.63;4.13;;;10.10;99.90;;;;;;5135246;27;20081;-72
2022/04/06 11:37:08;;;;;;;15.93;4.32;;;10.40;99.90;;;;;;5134483;27;20047;-72
2022/04/06 11:39:35;;;;;;;17.20;3.63;;;10.60;99.90;;;;;;5117827;27;20074;-71
2022/04/06 11:42:06;;;;;;;13.75;3.60;;;10.70;99.90;;;;;;5118189;27;20078;-71
2022/04/06 11:44:33;;;;;;;16.35;3.92;;;10.80;99.90;;;;;;5134806;27;20514;-71
2022/04/06 11:46:59;;;;;;;17.50;3.92;;;10.90;99.90;;;;;;5134938;27;20069;-71
2022/04/06 11:49:29;;;;;;;16.23;3.83;;;10.90;99.90;;;;;;5117206;27;20478;-72
2022/04/06 11:51:59;;;;;;;14.00;3.78;;;10.90;99.90;;;;;;5134545;27;20098;-72
2022/04/06 11:54:26;;;;;;;17.38;3.45;;;11.00;99.90;;;;;;5117255;27;20044;-72
2022/04/06 11:56:53;;;;;;;16.70;3.80;;;11.30;99.90;;;;;;5117499;27;20447;-72
2022/04/06 11:59:21;;;;;;;15.02;3.88;;;11.50;99.90;;;;;;5134497;27;20039;-72
2022/04/06 12:01:47;;;;;;;12.27;2.78;;;11.80;99.90;;;;;;5117811;27;20089;-72
2022/04/06 12:04:19;;;;;;;15.30;3.75;;;11.90;99.90;;;;;;5134681;27;20486;-72
2022/04/06 12:06:45;;;;;;;13.93;3.47;;;12.00;99.90;;;;;;5134519;27;20047;-72
2022/04/06 12:09:11;;;;;;;11.63;3.00;;;12.00;99.90;;;;;;5134449;27;20488;-71
2022/04/06 12:11:39;;;;;;;16.00;2.88;;;12.10;99.90;;;;;;5134387;27;20075;-72
2022/04/06 12:14:10;;;;;;;14.98;3.33;;;12.30;99.90;;;;;;5117448;27;20038;-71
2022/04/06 12:16:40;;;;;;;14.77;2.75;;;12.20;99.90;;;;;;5117744;27;20078;-72
2022/04/06 12:19:13;;;;;;;12.30;2.47;;;12.00;99.90;;;;;;5134220;27;20042;-72
2022/04/06 12:21:43;;;;;;;12.85;3.15;;;11.90;99.90;;;;;;5134594;27;20038;-72
2022/04/06 12:24:11;;;;;;;14.02;2.70;;;11.90;99.90;;;;;;5134490;27;20054;-72
2022/04/06 12:26:47;;;;;;;14.27;2.70;;;11.70;99.90;;;;;;5130661;27;20087;-72
2022/04/06 12:29:14;;;;;;;;;;;11.60;99.90;;;;;;5131563;27;20503;-72
2022/04/06 12:31:42;;;;;;;9.68;2.63;;;11.50;99.90;;;;;;5126050;27;19915;-72
2022/04/06 12:34:24;;;;;;;13.18;3.05;;;11.60;99.90;;;;;;5123217;27;20494;-72
2022/04/06 12:36:50;;;;;;;11.43;2.92;;;11.90;99.90;;;;;;5123951;27;20043;-72
2022/04/06 12:39:16;;;;;;;17.08;3.42;;;12.00;99.90;;;;;;5118043;27;20070;-73
2022/04/06 12:42:05;;;;;;;9.77;2.55;;;12.10;99.90;;;;;;5097881;27;20079;-72
2022/04/06 12:44:32;;;;;;;12.25;2.60;;;12.10;99.90;;;;;;5113871;27;20048;-72
2022/04/06 12:46:59;;;;;;;11.40;3.10;;;11.90;99.90;;;;;;5118167;28;20043;-72
2022/04/06 12:49:36;;;;;;;13.57;3.00;;;11.70;99.90;;;;;;5112762;28;20471;-72
2022/04/06 12:52:29;;;;;;;8.40;2.45;;;11.60;99.90;;;;;;5116051;28;20040;-72
2022/04/06 12:55:13;;;;;;;9.90;2.53;;;11.50;99.90;;;;;;5123475;28;20565;-71
2022/04/06 12:57:39;;;;;;;13.90;3.03;;;11.60;99.90;;;;;;5118893;28;20074;-71
2022/04/06 13:00:09;;;;;;;13.55;2.90;;;11.60;99.90;;;;;;5119852;28;20075;-71
2022/04/06 13:02:48;;;;;;;6.60;1.95;;;11.60;99.90;;;;;;5122801;28;20336;-70